Time;durP1;ratioP1;P1;durP2;ratioP2;P2;SDS_P1;SDS_P2;PMS_P1;PMS_P2;Temp;Humidity;BMP_temperature;BMP_pressure;BME280_temperature;BME280_humidity;BME280_pressure;Samples;Min_cycle;Max_cycle;Signal;HPM_P1;HPM_P2
2022/12/12 00:00:24;;;;;;;28.80;17.17;;;2.20;99.90;;;;;;5034708;28;20176;-74
2022/12/12 00:02:50;;;;;;;35.37;19.50;;;2.30;99.90;;;;;;5031968;28;20183;-74
2022/12/12 00:05:17;;;;;;;31.67;18.70;;;2.20;99.90;;;;;;5031324;28;20237;-74
2022/12/12 00:07:43;;;;;;;32.00;17.63;;;2.10;99.90;;;;;;5029940;28;20826;-74
2022/12/12 00:10:09;;;;;;;34.03;21.17;;;2.20;99.90;;;;;;5032148;28;20435;-74
2022/12/12 00:12:35;;;;;;;36.23;20.47;;;2.20;99.90;;;;;;5030902;28;21140;-73
2022/12/12 00:15:00;;;;;;;40.30;21.17;;;2.20;99.90;;;;;;5036251;28;20469;-74
2022/12/12 00:17:26;;;;;;;36.57;19.17;;;2.30;99.90;;;;;;5031777;28;20204;-74
2022/12/12 00:19:52;;;;;;;32.30;17.97;;;2.20;99.90;;;;;;5035648;28;20210;-75
2022/12/12 00:22:17;;;;;;;33.67;18.73;;;2.20;99.90;;;;;;5035171;28;20470;-75
2022/12/12 00:24:43;;;;;;;33.43;19.27;;;2.10;99.90;;;;;;5030171;28;20208;-75
2022/12/12 00:27:08;;;;;;;32.83;18.20;;;2.00;99.90;;;;;;5035683;28;20651;-75
2022/12/12 00:29:34;;;;;;;32.67;18.53;;;1.90;99.90;;;;;;5023206;28;20187;-74
2022/12/12 00:32:00;;;;;;;29.83;18.80;;;2.00;99.90;;;;;;5037319;28;20276;-75
2022/12/12 00:34:25;;;;;;;34.47;19.03;;;1.80;99.90;;;;;;5034094;28;20586;-75
2022/12/12 00:36:51;;;;;;;31.20;19.10;;;1.70;99.90;;;;;;5036991;28;20188;-75
2022/12/12 00:39:21;;;;;;;34.30;18.60;;;1.70;99.90;;;;;;5038882;28;20703;-75
2022/12/12 00:41:47;;;;;;;29.60;16.67;;;1.80;99.90;;;;;;5035452;28;20182;-73
2022/12/12 00:44:13;;;;;;;37.00;19.43;;;1.70;99.90;;;;;;5036406;28;21705;-74
2022/12/12 00:46:38;;;;;;;30.83;18.20;;;1.50;99.90;;;;;;5037859;28;20561;-74
2022/12/12 00:49:04;;;;;;;34.43;20.17;;;1.50;99.90;;;;;;5036277;28;20609;-74
2022/12/12 00:51:30;;;;;;;30.50;16.93;;;1.70;99.90;;;;;;5037686;28;20188;-74
2022/12/12 00:53:57;;;;;;;32.17;19.07;;;1.80;99.90;;;;;;5035694;28;20254;-75
2022/12/12 00:56:24;;;;;;;35.97;20.60;;;2.00;99.90;;;;;;5035588;28;20661;-75
2022/12/12 00:58:50;;;;;;;40.87;22.00;;;2.00;99.90;;;;;;5029890;28;20577;-74
2022/12/12 01:01:25;;;;;;;34.73;19.90;;;2.00;99.90;;;;;;5018899;28;20430;-75
2022/12/12 01:03:52;;;;;;;34.40;19.87;;;2.10;99.90;;;;;;5032132;28;20460;-75
2022/12/12 01:06:18;;;;;;;42.60;21.90;;;2.00;99.90;;;;;;5035043;28;20447;-76
2022/12/12 01:08:44;;;;;;;37.67;20.03;;;2.00;99.90;;;;;;5033199;28;20449;-75
2022/12/12 01:11:12;;;;;;;34.07;20.20;;;2.00;99.90;;;;;;5034689;28;21495;-76
2022/12/12 01:13:38;;;;;;;36.73;19.87;;;2.00;99.90;;;;;;5033192;28;20681;-76
2022/12/12 01:16:05;;;;;;;29.17;18.67;;;2.00;99.90;;;;;;5036414;28;20426;-76
2022/12/12 01:18:31;;;;;;;34.70;20.17;;;1.90;99.90;;;;;;5035818;28;20468;-75
2022/12/12 01:20:57;;;;;;;34.03;20.10;;;1.80;99.90;;;;;;5033893;28;21835;-76
2022/12/12 01:23:23;;;;;;;34.80;20.60;;;1.90;99.90;;;;;;5034289;28;20440;-76
2022/12/12 01:25:49;;;;;;;37.67;20.37;;;1.90;99.90;;;;;;5034029;28;20182;-76
2022/12/12 01:28:14;;;;;;;37.30;19.17;;;1.90;99.90;;;;;;5032987;28;20195;-76
2022/12/12 01:30:40;;;;;;;33.87;19.37;;;1.80;99.90;;;;;;5034245;28;20424;-76
2022/12/12 01:33:06;;;;;;;36.90;19.17;;;1.80;99.90;;;;;;5033942;28;20198;-76
2022/12/12 01:35:32;;;;;;;34.37;20.77;;;1.80;99.90;;;;;;5038332;28;20549;-76
2022/12/12 01:37:58;;;;;;;37.70;21.27;;;1.80;99.90;;;;;;5035526;28;20210;-75
2022/12/12 01:40:26;;;;;;;32.20;19.57;;;1.70;99.90;;;;;;5036516;28;20853;-76
2022/12/12 01:42:53;;;;;;;30.77;17.30;;;1.60;99.90;;;;;;5028455;28;20935;-74
2022/12/12 01:46:10;;;;;;;31.00;17.47;;;1.60;99.90;;;;;;5019829;28;20449;-74
2022/12/12 01:48:45;;;;;;;32.07;19.20;;;1.60;99.90;;;;;;4992219;28;22199;-74
2022/12/12 01:51:15;;;;;;;35.23;19.07;;;1.50;99.90;;;;;;5027868;28;20444;-74
2022/12/12 01:53:41;;;;;;;33.17;17.93;;;1.50;99.90;;;;;;5030744;28;20859;-74
2022/12/12 01:56:11;;;;;;;37.90;19.90;;;1.50;99.90;;;;;;5031922;28;20452;-74
2022/12/12 01:58:40;;;;;;;33.37;18.90;;;1.50;99.90;;;;;;5030711;28;20549;-74
2022/12/12 02:01:06;;;;;;;33.20;20.03;;;1.40;99.90;;;;;;5035698;28;21009;-74
2022/12/12 02:03:31;;;;;;;34.47;19.20;;;1.40;99.90;;;;;;5032171;28;20454;-74
2022/12/12 02:06:01;;;;;;;34.90;18.13;;;1.30;99.90;;;;;;5028393;28;20540;-75
2022/12/12 02:08:27;;;;;;;33.97;19.00;;;1.40;99.90;;;;;;5031978;28;20688;-75
2022/12/12 02:10:52;;;;;;;33.07;19.13;;;1.40;99.90;;;;;;5032492;28;21064;-74
2022/12/12 02:13:27;;;;;;;33.03;18.50;;;1.40;99.90;;;;;;5031286;28;20501;-75
2022/12/12 02:16:11;;;;;;;31.80;19.30;;;1.40;99.90;;;;;;5030013;28;20214;-73
2022/12/12 02:19:14;;;;;;;26.47;15.87;;;1.30;99.90;;;;;;5030311;28;20553;-75
2022/12/12 02:21:51;;;;;;;33.43;18.23;;;1.30;99.90;;;;;;5034537;28;20430;-75
2022/12/12 02:25:00;;;;;;;27.37;16.90;;;1.20;99.90;;;;;;5036703;28;20446;-75
2022/12/12 02:27:37;;;;;;;31.43;16.97;;;1.20;99.90;;;;;;5031078;28;20423;-75
2022/12/12 02:30:32;;;;;;;31.40;17.47;;;1.20;99.90;;;;;;5036485;28;20422;-75
2022/12/12 02:33:12;;;;;;;30.57;17.00;;;1.20;99.90;;;;;;5035819;28;20441;-75
2022/12/12 02:35:52;;;;;;;32.43;17.53;;;1.20;99.90;;;;;;5034280;28;20432;-75
2022/12/12 02:38:36;;;;;;;30.67;16.37;;;1.10;99.90;;;;;;5035654;28;20519;-75
2022/12/12 02:41:28;;;;;;;32.37;17.93;;;1.00;99.90;;;;;;5032906;28;20451;-75
2022/12/12 02:44:06;;;;;;;32.13;17.07;;;1.00;99.90;;;;;;5031694;28;20492;-74
2022/12/12 02:46:47;;;;;;;31.10;18.13;;;1.00;99.90;;;;;;5033666;28;20426;-74
2022/12/12 02:49:21;;;;;;;31.40;16.73;;;1.00;99.90;;;;;;5031903;28;20449;-74
2022/12/12 02:51:49;;;;;;;29.03;17.20;;;1.10;99.90;;;;;;5032279;28;20520;-74
2022/12/12 02:54:17;;;;;;;32.40;16.63;;;1.10;99.90;;;;;;5032936;28;20466;-74
2022/12/12 02:56:50;;;;;;;30.33;16.43;;;1.00;99.90;;;;;;5031385;28;20471;-74
2022/12/12 02:59:44;;;;;;;29.40;16.27;;;0.90;99.90;;;;;;5030660;28;21181;-74
2022/12/12 03:02:23;;;;;;;32.93;17.27;;;1.00;99.90;;;;;;5028825;28;20887;-74
2022/12/12 03:08:07;;;;;;;27.40;15.07;;;0.90;99.90;;;;;;5030844;28;20452;-75
2022/12/12 03:10:44;;;;;;;31.73;18.07;;;0.90;99.90;;;;;;5033779;28;21135;-75
2022/12/12 03:13:18;;;;;;;30.73;15.60;;;0.90;99.90;;;;;;5029169;28;21928;-74
2022/12/12 03:16:05;;;;;;;37.17;19.40;;;0.80;99.90;;;;;;5029203;28;20438;-74
2022/12/12 03:18:56;;;;;;;35.43;18.43;;;0.70;99.90;;;;;;5029147;28;20881;-74
2022/12/12 03:21:34;;;;;;;38.50;21.47;;;0.70;99.90;;;;;;5030909;28;20488;-75
2022/12/12 03:24:07;;;;;;;30.10;16.40;;;0.70;99.90;;;;;;5027643;28;20544;-75
2022/12/12 03:26:45;;;;;;;32.80;18.70;;;0.70;99.90;;;;;;5031321;28;20802;-75
2022/12/12 03:29:20;;;;;;;36.93;18.43;;;0.70;99.90;;;;;;5033507;28;20480;-75
2022/12/12 03:31:51;;;;;;;34.17;19.10;;;0.60;99.90;;;;;;5028849;28;20440;-75
2022/12/12 03:34:21;;;;;;;33.03;18.10;;;0.60;99.90;;;;;;5031545;28;20477;-75
2022/12/12 03:37:05;;;;;;;31.63;17.37;;;0.60;99.90;;;;;;5032497;28;20465;-75
2022/12/12 03:39:39;;;;;;;33.90;17.53;;;0.60;99.90;;;;;;5025572;28;20477;-73
2022/12/12 03:42:13;;;;;;;38.17;16.33;;;0.60;99.90;;;;;;5012864;28;20442;-73
2022/12/12 03:44:47;;;;;;;33.47;16.90;;;0.60;99.90;;;;;;5031414;28;20944;-74
2022/12/12 03:47:19;;;;;;;28.67;16.40;;;0.50;99.90;;;;;;5013478;28;20430;-74
2022/12/12 03:49:51;;;;;;;32.10;17.20;;;0.50;99.90;;;;;;5031484;28;20525;-73
2022/12/12 03:52:32;;;;;;;24.57;15.23;;;0.60;99.90;;;;;;5033193;28;20465;-73
2022/12/12 03:55:07;;;;;;;32.03;18.23;;;0.60;99.90;;;;;;5031532;28;20743;-74
2022/12/12 03:58:04;;;;;;;31.07;16.50;;;0.60;99.90;;;;;;5027305;28;20444;-75
2022/12/12 04:00:32;;;;;;;29.87;16.60;;;0.50;99.90;;;;;;5012865;28;20440;-76
2022/12/12 04:03:20;;;;;;;31.40;16.60;;;0.60;99.90;;;;;;5030750;28;20946;-76
2022/12/12 04:14:57;;;;;;;32.07;16.77;;;0.40;99.90;;;;;;5021506;28;20985;-74
2022/12/12 04:17:39;;;;;;;29.87;15.67;;;0.40;99.90;;;;;;5032933;28;20452;-75
2022/12/12 04:23:31;;;;;;;26.30;14.33;;;0.40;99.90;;;;;;5034424;28;20604;-74
2022/12/12 04:29:01;;;;;;;27.30;13.17;;;0.30;99.90;;;;;;5034595;28;20499;-74
2022/12/12 04:31:30;;;;;;;24.27;14.13;;;0.20;99.90;;;;;;5035591;28;20974;-74
2022/12/12 04:34:02;;;;;;;31.63;15.27;;;0.30;99.90;;;;;;5035272;28;20446;-74
2022/12/12 04:36:30;;;;;;;26.60;14.07;;;0.30;99.90;;;;;;5034472;28;20566;-75
2022/12/12 04:38:58;;;;;;;24.63;14.07;;;0.20;99.90;;;;;;5030183;28;20463;-74
2022/12/12 04:41:27;;;;;;;22.47;14.17;;;0.20;99.90;;;;;;5039153;28;20536;-74
2022/12/12 04:43:55;;;;;;;19.77;11.77;;;0.10;99.90;;;;;;5032105;28;20567;-76
2022/12/12 04:46:24;;;;;;;20.30;12.97;;;0.00;99.90;;;;;;5035213;28;20444;-75
2022/12/12 04:48:55;;;;;;;19.40;12.07;;;-0.10;99.90;;;;;;5036196;28;20879;-74
2022/12/12 04:51:41;;;;;;;21.83;12.90;;;-0.10;99.90;;;;;;5031692;28;20474;-74
2022/12/12 04:54:55;;;;;;;21.47;12.00;;;-0.10;99.90;;;;;;5031819;28;20446;-74
2022/12/12 04:57:26;;;;;;;23.03;12.80;;;-0.10;99.90;;;;;;5011922;28;20438;-74
2022/12/12 04:59:52;;;;;;;21.10;12.50;;;-0.10;99.90;;;;;;5034273;28;20991;-73
2022/12/12 05:02:29;;;;;;;24.10;13.70;;;-0.10;99.90;;;;;;5037072;28;20437;-73
2022/12/12 05:05:02;;;;;;;23.87;12.63;;;0.00;99.90;;;;;;5027555;28;20217;-74
2022/12/12 05:07:39;;;;;;;24.13;12.70;;;0.10;99.90;;;;;;5032388;28;20445;-74
2022/12/12 05:10:14;;;;;;;27.43;14.13;;;0.10;99.90;;;;;;5031761;28;20803;-74
2022/12/12 05:12:55;;;;;;;21.93;12.27;;;0.10;99.90;;;;;;5035536;28;20915;-74
2022/12/12 05:15:21;;;;;;;19.47;11.47;;;0.00;99.90;;;;;;5034929;28;20472;-73
2022/12/12 05:18:00;;;;;;;26.10;13.63;;;0.00;99.90;;;;;;5035833;28;20442;-73
2022/12/12 05:20:26;;;;;;;22.90;12.40;;;0.10;99.90;;;;;;5036511;28;20560;-74
2022/12/12 05:22:51;;;;;;;29.50;13.40;;;0.00;99.90;;;;;;5017485;28;20443;-74
2022/12/12 05:25:17;;;;;;;23.23;14.17;;;-0.10;99.90;;;;;;5035088;28;20682;-74
2022/12/12 05:27:43;;;;;;;25.47;13.63;;;-0.10;99.90;;;;;;5033295;28;20188;-75
2022/12/12 05:30:09;;;;;;;27.33;12.87;;;-0.20;99.90;;;;;;5031766;28;20193;-74
2022/12/12 05:32:34;;;;;;;21.17;12.57;;;-0.10;99.90;;;;;;5035019;28;20220;-75
2022/12/12 05:35:00;;;;;;;25.27;13.73;;;-0.10;99.90;;;;;;5035214;28;20558;-75
2022/12/12 05:37:26;;;;;;;22.10;12.80;;;0.00;99.90;;;;;;5032996;28;20213;-75
2022/12/12 05:39:51;;;;;;;26.20;14.47;;;-0.10;99.90;;;;;;5033172;28;20315;-75
2022/12/12 05:42:17;;;;;;;22.60;13.30;;;0.00;99.90;;;;;;5035091;28;20177;-75
2022/12/12 05:44:42;;;;;;;24.37;13.20;;;0.00;99.90;;;;;;5033938;28;20209;-74
2022/12/12 05:47:08;;;;;;;22.07;13.80;;;-0.10;99.90;;;;;;5029193;28;20206;-74
2022/12/12 05:49:34;;;;;;;24.33;13.17;;;-0.20;99.90;;;;;;5037233;28;20284;-74
2022/12/12 05:52:00;;;;;;;21.90;12.27;;;-0.20;99.90;;;;;;5029817;28;20484;-76
2022/12/12 05:54:26;;;;;;;22.90;13.10;;;-0.20;99.90;;;;;;5033048;28;20645;-76
2022/12/12 05:56:51;;;;;;;23.63;12.90;;;-0.20;99.90;;;;;;5031806;28;20645;-76
2022/12/12 05:59:17;;;;;;;23.97;12.90;;;-0.10;99.90;;;;;;5035097;28;20347;-76
2022/12/12 06:01:43;;;;;;;24.83;14.77;;;-0.20;99.90;;;;;;5036560;28;20190;-75
2022/12/12 06:04:08;;;;;;;22.10;11.70;;;-0.20;99.90;;;;;;5029777;28;20211;-76
2022/12/12 06:06:34;;;;;;;23.60;13.37;;;-0.20;99.90;;;;;;5035844;28;20255;-74
2022/12/12 06:08:59;;;;;;;22.30;12.60;;;-0.10;99.90;;;;;;5029268;28;20720;-74
2022/12/12 06:11:25;;;;;;;23.60;12.80;;;-0.20;99.90;;;;;;5033667;28;20739;-74
2022/12/12 06:13:51;;;;;;;23.17;12.13;;;-0.20;99.90;;;;;;5026909;28;20219;-74
2022/12/12 06:16:17;;;;;;;22.47;12.60;;;-0.10;99.90;;;;;;5030912;28;20183;-74
2022/12/12 06:18:44;;;;;;;20.83;12.33;;;-0.10;99.90;;;;;;5031031;28;20279;-74
2022/12/12 06:21:11;;;;;;;22.73;12.07;;;0.00;99.90;;;;;;5031300;28;20446;-75
2022/12/12 06:23:39;;;;;;;20.43;11.93;;;0.00;99.90;;;;;;5030739;28;20500;-76
2022/12/12 06:26:06;;;;;;;22.90;11.67;;;0.00;99.90;;;;;;5032068;28;20977;-75
2022/12/12 06:28:31;;;;;;;20.57;11.97;;;0.00;99.90;;;;;;5032500;28;20450;-75
2022/12/12 06:30:57;;;;;;;34.57;19.97;;;0.10;99.90;;;;;;5030525;28;20445;-74
2022/12/12 06:33:23;;;;;;;27.43;14.53;;;0.10;99.90;;;;;;5032375;28;21273;-75
2022/12/12 06:36:06;;;;;;;23.03;14.20;;;0.10;99.90;;;;;;5027884;28;20237;-76
2022/12/12 06:38:33;;;;;;;17.83;9.97;;;0.20;99.90;;;;;;5031260;28;20206;-77
2022/12/12 06:40:59;;;;;;;19.93;11.30;;;0.20;99.90;;;;;;5028453;28;20897;-77
2022/12/12 06:43:25;;;;;;;20.70;12.60;;;0.30;99.90;;;;;;5027842;28;20496;-76
2022/12/12 06:45:51;;;;;;;19.10;11.47;;;0.40;99.90;;;;;;5032010;28;20442;-76
2022/12/12 06:48:16;;;;;;;19.67;9.47;;;0.30;99.90;;;;;;5026184;28;20670;-76
2022/12/12 06:50:43;;;;;;;17.73;11.93;;;0.20;99.90;;;;;;5033647;28;20854;-76
2022/12/12 06:53:09;;;;;;;17.87;9.90;;;0.10;99.90;;;;;;5030827;28;20266;-75
2022/12/12 06:55:41;;;;;;;18.17;9.70;;;0.10;99.90;;;;;;5022688;28;20429;-76
2022/12/12 06:58:07;;;;;;;13.03;9.50;;;0.10;99.90;;;;;;5024943;28;20881;-75
2022/12/12 07:00:32;;;;;;;16.63;9.90;;;0.20;99.90;;;;;;5030476;28;20425;-75
2022/12/12 07:02:58;;;;;;;18.40;10.90;;;0.10;99.90;;;;;;5031541;28;20251;-75
2022/12/12 07:05:23;;;;;;;18.20;10.03;;;0.10;99.90;;;;;;5024247;28;20235;-74
2022/12/12 07:07:49;;;;;;;17.33;10.73;;;0.00;99.90;;;;;;5023234;28;20233;-75
2022/12/12 07:10:14;;;;;;;21.70;12.67;;;0.00;99.90;;;;;;5026911;28;20210;-76
2022/12/12 07:12:40;;;;;;;21.07;12.70;;;-0.10;99.90;;;;;;5029288;28;20178;-75
2022/12/12 07:15:06;;;;;;;20.70;11.17;;;0.00;99.90;;;;;;5027646;28;20223;-74
2022/12/12 07:17:31;;;;;;;20.73;11.93;;;0.10;99.90;;;;;;5026028;28;20318;-74
2022/12/12 07:19:57;;;;;;;21.00;11.27;;;0.20;99.90;;;;;;5013298;28;20563;-73
2022/12/12 07:22:26;;;;;;;16.97;9.47;;;0.20;99.90;;;;;;5019146;28;20193;-76
2022/12/12 07:24:51;;;;;;;17.63;10.30;;;0.20;99.90;;;;;;5029010;28;20280;-75
2022/12/12 07:27:17;;;;;;;22.10;12.37;;;0.10;99.90;;;;;;5026466;28;21180;-75
2022/12/12 07:29:43;;;;;;;20.50;11.23;;;0.00;99.90;;;;;;5028665;28;20578;-76
2022/12/12 07:32:09;;;;;;;20.47;11.10;;;0.20;99.90;;;;;;5018906;28;20194;-76
2022/12/12 07:34:34;;;;;;;18.30;10.80;;;0.00;99.90;;;;;;5028125;28;20483;-76
2022/12/12 07:37:00;;;;;;;22.93;11.47;;;0.10;99.90;;;;;;5021014;28;20182;-74
2022/12/12 07:39:29;;;;;;;22.97;13.90;;;0.20;99.90;;;;;;5029972;28;20211;-74
2022/12/12 07:41:54;;;;;;;44.03;21.17;;;0.10;99.90;;;;;;5032362;28;20202;-80
2022/12/12 07:44:20;;;;;;;19.77;10.80;;;0.10;99.90;;;;;;5013490;28;20456;-79
2022/12/12 07:46:45;;;;;;;19.60;11.13;;;0.00;99.90;;;;;;5026451;28;20559;-75
2022/12/12 07:49:11;;;;;;;17.23;10.20;;;0.00;99.90;;;;;;5030600;28;20266;-73
2022/12/12 07:51:37;;;;;;;19.03;10.30;;;0.20;99.90;;;;;;5029912;28;20286;-77
2022/12/12 07:54:03;;;;;;;18.13;10.87;;;0.10;99.90;;;;;;5026040;28;20421;-77
2022/12/12 07:56:29;;;;;;;20.10;12.47;;;0.10;99.90;;;;;;5030427;28;20543;-79
2022/12/12 07:58:54;;;;;;;20.27;10.80;;;0.10;99.90;;;;;;5025801;28;20581;-78
2022/12/12 08:01:23;;;;;;;20.57;10.80;;;0.00;99.90;;;;;;5023021;28;20831;-74
2022/12/12 08:03:50;;;;;;;18.13;9.33;;;0.20;99.90;;;;;;5022696;28;20195;-73
2022/12/12 08:06:17;;;;;;;18.93;10.50;;;0.20;99.90;;;;;;5028804;28;20463;-73
2022/12/12 08:08:44;;;;;;;16.50;10.43;;;0.30;99.90;;;;;;5029639;28;20441;-74
2022/12/12 08:11:11;;;;;;;17.00;10.67;;;0.20;99.90;;;;;;5025423;28;20439;-74
2022/12/12 08:13:38;;;;;;;21.00;12.33;;;0.20;99.90;;;;;;5027223;28;20490;-74
2022/12/12 08:16:05;;;;;;;29.77;12.40;;;0.20;99.90;;;;;;5025396;28;20441;-73
2022/12/12 08:18:31;;;;;;;18.10;11.10;;;0.40;99.90;;;;;;5032538;28;20511;-74
2022/12/12 08:20:57;;;;;;;22.73;12.30;;;0.40;99.90;;;;;;5026286;28;20434;-75
2022/12/12 08:23:23;;;;;;;20.13;11.80;;;0.30;99.90;;;;;;5026665;28;20181;-74
2022/12/12 08:25:48;;;;;;;19.57;12.13;;;0.20;99.90;;;;;;5030309;28;21001;-74
2022/12/12 08:28:14;;;;;;;18.43;11.40;;;0.20;99.90;;;;;;5026798;28;20195;-74
2022/12/12 08:30:39;;;;;;;22.40;11.40;;;0.20;99.90;;;;;;5028679;28;20285;-74
2022/12/12 08:33:05;;;;;;;22.93;12.97;;;0.30;99.90;;;;;;5032198;28;20179;-73
2022/12/12 08:35:31;;;;;;;18.23;11.30;;;0.30;99.90;;;;;;5033236;28;20273;-74
2022/12/12 08:37:58;;;;;;;21.13;13.27;;;0.30;99.90;;;;;;5026161;28;20276;-75
2022/12/12 08:40:23;;;;;;;23.37;13.30;;;0.40;99.90;;;;;;5011606;28;20418;-75
2022/12/12 08:42:49;;;;;;;21.40;13.57;;;0.30;99.90;;;;;;5028988;28;21059;-73
2022/12/12 08:45:15;;;;;;;21.50;13.40;;;0.40;99.90;;;;;;5026002;28;20222;-73
2022/12/12 08:47:41;;;;;;;22.03;14.73;;;0.40;99.90;;;;;;5031293;28;20187;-73
2022/12/12 08:50:07;;;;;;;22.23;13.27;;;0.60;99.90;;;;;;5031411;28;20511;-76
2022/12/12 08:52:32;;;;;;;22.17;13.47;;;0.50;99.90;;;;;;5033774;28;20226;-74
2022/12/12 08:54:58;;;;;;;23.47;13.57;;;0.40;99.90;;;;;;5036258;28;20457;-77
2022/12/12 08:57:24;;;;;;;28.77;14.67;;;0.60;99.90;;;;;;5017319;28;20564;-78
2022/12/12 08:59:50;;;;;;;22.17;13.37;;;0.70;99.90;;;;;;5026130;28;20275;-74
2022/12/12 09:02:15;;;;;;;20.30;12.00;;;0.80;99.90;;;;;;5005080;28;20202;-75
2022/12/12 09:04:41;;;;;;;27.07;13.67;;;0.80;99.90;;;;;;5025576;28;20451;-76
2022/12/12 09:07:06;;;;;;;25.40;15.17;;;0.70;99.90;;;;;;5026814;28;20214;-75
2022/12/12 09:09:32;;;;;;;28.23;14.10;;;0.80;99.90;;;;;;5032573;28;20680;-74
2022/12/12 09:11:58;;;;;;;26.37;16.13;;;0.90;99.90;;;;;;5035745;28;20567;-74
2022/12/12 09:14:24;;;;;;;24.93;13.57;;;0.60;99.90;;;;;;5014093;28;20232;-74
2022/12/12 09:16:50;;;;;;;21.80;13.87;;;0.60;99.90;;;;;;5029001;28;20186;-74
2022/12/12 09:19:15;;;;;;;25.63;16.40;;;0.70;99.90;;;;;;5028314;28;20518;-74
2022/12/12 09:21:41;;;;;;;25.07;14.10;;;0.70;99.90;;;;;;5034019;28;20266;-74
2022/12/12 09:24:07;;;;;;;27.63;14.60;;;0.60;99.90;;;;;;5031841;28;20453;-74
2022/12/12 09:26:36;;;;;;;24.93;14.47;;;0.80;99.90;;;;;;5027409;28;20227;-74
2022/12/12 09:29:01;;;;;;;21.23;13.17;;;0.90;99.90;;;;;;5026145;28;20770;-75
2022/12/12 09:31:27;;;;;;;25.23;15.30;;;0.90;99.90;;;;;;5027217;28;20430;-76
2022/12/12 09:33:53;;;;;;;29.73;14.60;;;0.70;99.90;;;;;;5012095;28;20207;-78
2022/12/12 09:36:19;;;;;;;25.67;15.23;;;0.80;99.90;;;;;;5033284;28;20446;-77
2022/12/12 09:38:45;;;;;;;29.40;15.70;;;0.80;99.90;;;;;;5034623;28;20207;-76
2022/12/12 09:41:18;;;;;;;34.23;16.17;;;0.80;99.90;;;;;;5016412;28;20503;-78
2022/12/12 09:44:07;;;;;;;26.47;15.70;;;0.80;99.90;;;;;;5032089;28;20215;-78
2022/12/12 09:46:49;;;;;;;27.07;15.37;;;1.00;99.90;;;;;;5036490;28;20903;-76
2022/12/12 09:49:38;;;;;;;29.53;16.43;;;1.10;99.90;;;;;;5033482;28;20900;-75
2022/12/12 09:52:05;;;;;;;29.33;17.50;;;1.20;99.90;;;;;;5033638;28;20442;-74
2022/12/12 09:54:30;;;;;;;24.07;17.20;;;1.30;99.90;;;;;;5036914;28;20481;-76
2022/12/12 09:57:18;;;;;;;30.60;16.50;;;1.30;99.90;;;;;;5031192;28;20862;-74
2022/12/12 10:00:13;;;;;;;28.27;15.33;;;1.30;99.90;;;;;;5029495;28;20293;-72
2022/12/12 10:02:58;;;;;;;27.73;15.70;;;1.30;99.90;;;;;;5019636;28;20438;-72
2022/12/12 10:05:41;;;;;;;30.50;16.40;;;1.20;99.90;;;;;;5034127;28;21839;-76
2022/12/12 10:08:09;;;;;;;34.10;19.60;;;1.30;99.90;;;;;;5029411;28;20443;-74
2022/12/12 10:10:40;;;;;;;35.63;19.97;;;1.40;99.90;;;;;;5033710;28;20422;-74
2022/12/12 10:13:14;;;;;;;34.63;19.30;;;1.50;99.90;;;;;;5026189;28;20437;-73
2022/12/12 10:15:44;;;;;;;32.17;16.93;;;1.50;99.90;;;;;;5032987;28;20434;-76
2022/12/12 10:18:42;;;;;;;33.50;18.10;;;1.50;99.90;;;;;;5031121;28;20456;-74
2022/12/12 10:21:25;;;;;;;27.67;16.70;;;1.60;99.90;;;;;;5007230;28;20452;-77
2022/12/12 10:24:00;;;;;;;34.43;17.73;;;1.70;99.90;;;;;;5031008;28;20449;-77
2022/12/12 10:26:28;;;;;;;31.00;15.83;;;1.70;99.90;;;;;;5016233;28;20946;-76
2022/12/12 10:29:16;;;;;;;33.70;19.17;;;1.70;99.90;;;;;;5024841;28;20439;-77
2022/12/12 10:31:58;;;;;;;38.77;18.10;;;1.50;99.90;;;;;;5024760;28;20945;-77
2022/12/12 10:34:30;;;;;;;36.50;19.37;;;1.60;99.90;;;;;;5021761;28;20467;-76
2022/12/12 10:37:25;;;;;;;31.20;18.80;;;1.40;99.90;;;;;;5028309;28;20457;-77
2022/12/12 10:40:27;;;;;;;35.60;19.63;;;1.50;99.90;;;;;;5029792;28;20843;-75
2022/12/12 10:43:42;;;;;;;31.37;17.30;;;1.60;99.90;;;;;;5030660;28;20801;-74
2022/12/12 10:46:20;;;;;;;30.00;16.13;;;1.60;99.90;;;;;;4989033;28;20955;-76
2022/12/12 10:48:47;;;;;;;32.10;18.60;;;1.70;99.90;;;;;;4989938;28;20440;-78
2022/12/12 10:51:16;;;;;;;30.03;16.70;;;1.60;99.90;;;;;;5013961;28;20454;-77
2022/12/12 10:53:43;;;;;;;32.90;18.53;;;1.50;99.90;;;;;;5030560;28;20554;-77
2022/12/12 10:56:12;;;;;;;37.97;21.23;;;1.60;99.90;;;;;;5016698;28;20426;-77
2022/12/12 10:58:43;;;;;;;34.50;19.77;;;1.60;99.90;;;;;;5031410;28;20994;-79
2022/12/12 11:01:18;;;;;;;32.03;19.03;;;1.50;99.90;;;;;;5033974;28;20460;-79
2022/12/12 11:03:47;;;;;;;37.97;18.90;;;1.80;99.90;;;;;;5029770;28;20467;-79
2022/12/12 11:06:25;;;;;;;33.47;19.53;;;1.90;99.90;;;;;;5033501;28;20898;-74
2022/12/12 11:09:06;;;;;;;55.87;17.97;;;2.00;99.90;;;;;;5034516;28;20433;-72
2022/12/12 11:11:32;;;;;;;33.40;18.37;;;1.90;99.90;;;;;;5029952;28;20429;-73
2022/12/12 11:14:02;;;;;;;32.83;17.93;;;2.00;99.90;;;;;;5027527;28;20532;-76
2022/12/12 11:16:49;;;;;;;33.00;17.53;;;1.90;99.90;;;;;;5030244;28;20432;-74
2022/12/12 11:19:22;;;;;;;31.97;17.80;;;1.90;99.90;;;;;;5030177;28;20844;-77
2022/12/12 11:21:48;;;;;;;35.23;19.00;;;1.90;99.90;;;;;;5034572;28;20418;-74
2022/12/12 11:24:17;;;;;;;34.57;18.20;;;1.80;99.90;;;;;;5029645;28;20441;-73
2022/12/12 11:26:56;;;;;;;31.17;18.60;;;1.80;99.90;;;;;;5028542;28;20568;-75
2022/12/12 11:29:45;;;;;;;33.93;17.93;;;2.00;99.90;;;;;;5027369;28;20425;-77
2022/12/12 11:32:18;;;;;;;33.90;18.13;;;2.10;99.90;;;;;;5031681;28;21337;-77
2022/12/12 11:34:52;;;;;;;37.60;18.53;;;1.90;99.90;;;;;;5029012;28;21037;-75
2022/12/12 11:37:22;;;;;;;34.07;18.57;;;1.90;99.90;;;;;;5019920;28;20523;-74
2022/12/12 11:39:52;;;;;;;32.57;18.67;;;2.20;99.90;;;;;;5027948;28;20476;-75
2022/12/12 11:42:24;;;;;;;33.83;17.87;;;2.40;99.90;;;;;;5025316;28;20458;-77
2022/12/12 11:45:12;;;;;;;33.83;17.73;;;2.50;99.90;;;;;;5024607;28;20469;-74
2022/12/12 11:47:43;;;;;;;31.57;17.80;;;2.70;99.90;;;;;;5015658;28;20435;-74
2022/12/12 11:50:21;;;;;;;31.20;18.93;;;2.70;99.90;;;;;;5025071;28;20540;-77
2022/12/12 11:52:48;;;;;;;30.30;17.30;;;2.90;99.90;;;;;;5029106;28;20933;-79
2022/12/12 11:55:17;;;;;;;28.70;16.77;;;3.10;99.90;;;;;;5008494;28;20462;-76
2022/12/12 11:58:07;;;;;;;29.33;18.73;;;3.20;99.90;;;;;;5028054;28;20439;-76
2022/12/12 12:00:49;;;;;;;32.83;19.13;;;3.10;99.90;;;;;;5014156;28;20492;-74
2022/12/12 12:03:53;;;;;;;28.00;16.90;;;3.30;99.90;;;;;;5014429;28;20438;-76
2022/12/12 12:06:36;;;;;;;31.53;18.37;;;3.40;99.90;;;;;;5026811;28;20828;-75
2022/12/12 12:09:20;;;;;;;30.27;18.80;;;3.70;99.90;;;;;;5031680;28;20437;-75
2022/12/12 12:12:14;;;;;;;32.40;19.00;;;3.80;99.90;;;;;;5012619;28;20448;-74
2022/12/12 12:14:49;;;;;;;32.37;19.60;;;4.20;99.90;;;;;;5019595;28;22013;-75
2022/12/12 12:17:26;;;;;;;35.13;19.30;;;4.80;99.90;;;;;;5023539;28;20426;-75
2022/12/12 12:20:29;;;;;;;26.50;17.83;;;5.40;99.90;;;;;;5032372;28;20500;-76
2022/12/12 12:23:12;;;;;;;29.70;17.00;;;6.10;99.90;;;;;;5035376;28;20433;-76
2022/12/12 12:25:53;;;;;;;29.93;18.47;;;6.20;99.90;;;;;;5035299;28;20419;-76
2022/12/12 12:28:55;;;;;;;28.27;18.60;;;6.80;99.90;;;;;;5037668;28;20468;-76
2022/12/12 12:31:39;;;;;;;28.60;18.50;;;7.30;99.90;;;;;;5013506;28;21365;-76
2022/12/12 12:34:30;;;;;;;25.40;17.87;;;7.70;99.90;;;;;;5039970;28;20441;-76
2022/12/12 12:37:08;;;;;;;29.07;17.83;;;8.10;99.90;;;;;;5020991;28;20435;-76
2022/12/12 12:39:37;;;;;;;28.60;16.90;;;8.40;99.90;;;;;;5034304;28;20454;-76
2022/12/12 12:42:11;;;;;;;26.63;18.60;;;8.70;99.90;;;;;;5037435;28;20419;-76
2022/12/12 12:44:43;;;;;;;29.53;18.77;;;9.10;99.90;;;;;;5035302;28;20430;-76
2022/12/12 12:47:17;;;;;;;29.30;19.33;;;9.50;99.90;;;;;;5035416;28;20753;-76
2022/12/12 12:49:52;;;;;;;34.03;19.00;;;9.80;99.90;;;;;;5034341;28;20847;-76
2022/12/12 12:52:31;;;;;;;24.00;18.63;;;10.10;99.90;;;;;;5037823;28;20445;-76
2022/12/12 12:54:58;;;;;;;30.47;19.03;;;10.40;99.90;;;;;;5029911;28;21013;-76
2022/12/12 12:57:31;;;;;;;28.40;19.00;;;10.60;99.90;;;;;;5033921;28;20438;-76
2022/12/12 13:00:03;;;;;;;27.93;18.70;;;10.60;99.90;;;;;;5026175;28;20551;-76
2022/12/12 13:02:56;;;;;;;27.37;18.33;;;10.40;99.90;;;;;;5033460;28;20465;-75
2022/12/12 13:05:25;;;;;;;24.33;18.40;;;10.50;99.90;;;;;;5032226;28;20496;-76
2022/12/12 13:08:25;;;;;;;28.80;18.70;;;10.50;99.90;;;;;;5030646;28;20426;-75
2022/12/12 13:10:55;;;;;;;28.60;19.93;;;10.40;99.90;;;;;;5031997;28;20567;-74
2022/12/12 13:13:30;;;;;;;27.17;19.10;;;10.30;99.80;;;;;;5026771;28;20456;-74
2022/12/12 13:16:18;;;;;;;26.57;19.57;;;10.10;99.80;;;;;;5032832;28;20441;-74
2022/12/12 13:18:56;;;;;;;23.73;16.73;;;9.90;99.90;;;;;;5029131;28;20582;-74